sensor_id;sensor_type;location;lat;lon;timestamp;P1;durP1;ratioP1;P2;durP2;ratioP2
17844;SDS011;9047;53.486;10.218;2023-08-07T00:00:51;9.55;;;4.07;;
17844;SDS011;9047;53.486;10.218;2023-08-07T00:03:18;9.88;;;4.03;;
17844;SDS011;9047;53.486;10.218;2023-08-07T00:05:45;8.48;;;4.00;;
17844;SDS011;9047;53.486;10.218;2023-08-07T00:08:12;11.13;;;4.07;;
17844;SDS011;9047;53.486;10.218;2023-08-07T00:10:39;8.38;;;4.07;;
17844;SDS011;9047;53.486;10.218;2023-08-07T00:13:06;7.05;;;3.75;;
17844;SDS011;9047;53.486;10.218;2023-08-07T00:15:36;5.68;;;3.97;;
17844;SDS011;9047;53.486;10.218;2023-08-07T00:18:04;6.43;;;3.65;;
17844;SDS011;9047;53.486;10.218;2023-08-07T00:20:31;6.88;;;3.50;;
17844;SDS011;9047;53.486;10.218;2023-08-07T00:22:59;5.95;;;3.58;;
17844;SDS011;9047;53.486;10.218;2023-08-07T00:25:26;7.60;;;3.50;;
17844;SDS011;9047;53.486;10.218;2023-08-07T00:27:53;10.15;;;3.50;;
17844;SDS011;9047;53.486;10.218;2023-08-07T00:30:20;4.43;;;3.13;;
17844;SDS011;9047;53.486;10.218;2023-08-07T00:32:51;5.75;;;3.38;;
17844;SDS011;9047;53.486;10.218;2023-08-07T00:35:18;6.35;;;3.40;;
17844;SDS011;9047;53.486;10.218;2023-08-07T00:37:44;5.38;;;2.88;;
17844;SDS011;9047;53.486;10.218;2023-08-07T00:40:11;6.78;;;3.03;;
17844;SDS011;9047;53.486;10.218;2023-08-07T00:42:38;8.60;;;3.33;;
17844;SDS011;9047;53.486;10.218;2023-08-07T00:45:05;4.75;;;3.10;;
17844;SDS011;9047;53.486;10.218;2023-08-07T00:47:33;6.78;;;3.10;;
17844;SDS011;9047;53.486;10.218;2023-08-07T00:50:04;6.15;;;3.10;;
17844;SDS011;9047;53.486;10.218;2023-08-07T00:52:33;4.25;;;3.03;;
17844;SDS011;9047;53.486;10.218;2023-08-07T00:55:00;7.45;;;2.80;;
17844;SDS011;9047;53.486;10.218;2023-08-07T00:57:28;6.53;;;2.70;;
17844;SDS011;9047;53.486;10.218;2023-08-07T00:59:56;5.95;;;2.67;;
17844;SDS011;9047;53.486;10.218;2023-08-07T01:02:25;4.75;;;3.08;;
17844;SDS011;9047;53.486;10.218;2023-08-07T01:04:52;4.55;;;2.70;;
17844;SDS011;9047;53.486;10.218;2023-08-07T01:07:20;5.22;;;2.63;;
17844;SDS011;9047;53.486;10.218;2023-08-07T01:09:47;4.18;;;2.40;;
17844;SDS011;9047;53.486;10.218;2023-08-07T01:12:15;3.80;;;2.50;;
17844;SDS011;9047;53.486;10.218;2023-08-07T01:14:49;4.38;;;2.63;;
17844;SDS011;9047;53.486;10.218;2023-08-07T01:17:19;4.05;;;2.50;;
17844;SDS011;9047;53.486;10.218;2023-08-07T01:19:48;4.50;;;2.35;;
17844;SDS011;9047;53.486;10.218;2023-08-07T01:22:19;4.55;;;2.50;;
17844;SDS011;9047;53.486;10.218;2023-08-07T01:24:48;3.53;;;2.22;;
17844;SDS011;9047;53.486;10.218;2023-08-07T01:27:23;4.57;;;2.60;;
17844;SDS011;9047;53.486;10.218;2023-08-07T01:29:57;4.97;;;2.10;;
17844;SDS011;9047;53.486;10.218;2023-08-07T01:32:34;4.88;;;2.40;;
17844;SDS011;9047;53.486;10.218;2023-08-07T01:35:06;7.07;;;2.60;;
17844;SDS011;9047;53.486;10.218;2023-08-07T01:37:38;6.07;;;2.85;;
17844;SDS011;9047;53.486;10.218;2023-08-07T01:40:07;3.50;;;2.25;;
17844;SDS011;9047;53.486;10.218;2023-08-07T01:42:36;4.25;;;2.60;;
17844;SDS011;9047;53.486;10.218;2023-08-07T01:45:04;4.10;;;2.53;;
17844;SDS011;9047;53.486;10.218;2023-08-07T01:47:31;5.95;;;2.60;;
17844;SDS011;9047;53.486;10.218;2023-08-07T01:49:58;5.15;;;2.65;;
17844;SDS011;9047;53.486;10.218;2023-08-07T01:52:25;5.18;;;2.50;;
17844;SDS011;9047;53.486;10.218;2023-08-07T01:55:00;4.78;;;2.55;;
17844;SDS011;9047;53.486;10.218;2023-08-07T01:57:26;5.53;;;2.47;;
17844;SDS011;9047;53.486;10.218;2023-08-07T01:59:53;5.25;;;2.55;;
17844;SDS011;9047;53.486;10.218;2023-08-07T02:02:20;4.75;;;2.30;;
17844;SDS011;9047;53.486;10.218;2023-08-07T02:04:47;6.60;;;2.60;;
17844;SDS011;9047;53.486;10.218;2023-08-07T02:07:14;6.65;;;2.45;;
17844;SDS011;9047;53.486;10.218;2023-08-07T02:09:41;5.40;;;2.30;;
17844;SDS011;9047;53.486;10.218;2023-08-07T02:12:09;4.90;;;2.78;;
17844;SDS011;9047;53.486;10.218;2023-08-07T02:14:36;3.67;;;2.30;;
17844;SDS011;9047;53.486;10.218;2023-08-07T02:17:03;5.40;;;2.70;;
17844;SDS011;9047;53.486;10.218;2023-08-07T02:19:31;3.83;;;2.38;;
17844;SDS011;9047;53.486;10.218;2023-08-07T02:21:57;4.57;;;2.53;;
17844;SDS011;9047;53.486;10.218;2023-08-07T02:24:24;7.57;;;2.30;;
17844;SDS011;9047;53.486;10.218;2023-08-07T02:26:51;4.03;;;2.20;;
17844;SDS011;9047;53.486;10.218;2023-08-07T02:29:19;7.55;;;2.50;;
17844;SDS011;9047;53.486;10.218;2023-08-07T02:31:47;7.13;;;2.90;;
17844;SDS011;9047;53.486;10.218;2023-08-07T02:34:14;5.05;;;2.58;;
17844;SDS011;9047;53.486;10.218;2023-08-07T02:36:41;5.32;;;2.80;;
17844;SDS011;9047;53.486;10.218;2023-08-07T02:39:08;4.70;;;2.80;;
17844;SDS011;9047;53.486;10.218;2023-08-07T02:41:35;5.55;;;2.60;;
17844;SDS011;9047;53.486;10.218;2023-08-07T02:44:01;6.47;;;2.75;;
17844;SDS011;9047;53.486;10.218;2023-08-07T02:46:30;6.47;;;3.22;;
17844;SDS011;9047;53.486;10.218;2023-08-07T02:48:56;4.20;;;2.60;;
17844;SDS011;9047;53.486;10.218;2023-08-07T02:51:24;7.07;;;3.10;;
17844;SDS011;9047;53.486;10.218;2023-08-07T02:53:52;7.25;;;3.40;;
17844;SDS011;9047;53.486;10.218;2023-08-07T02:56:18;6.07;;;2.88;;
17844;SDS011;9047;53.486;10.218;2023-08-07T02:58:45;5.93;;;2.88;;
17844;SDS011;9047;53.486;10.218;2023-08-07T03:01:12;6.20;;;2.92;;
17844;SDS011;9047;53.486;10.218;2023-08-07T03:03:41;5.97;;;2.90;;
17844;SDS011;9047;53.486;10.218;2023-08-07T03:06:07;6.00;;;2.88;;
17844;SDS011;9047;53.486;10.218;2023-08-07T03:08:34;5.50;;;2.75;;
17844;SDS011;9047;53.486;10.218;2023-08-07T03:11:01;5.50;;;2.80;;
17844;SDS011;9047;53.486;10.218;2023-08-07T03:13:28;2.97;;;2.60;;
17844;SDS011;9047;53.486;10.218;2023-08-07T03:15:58;4.75;;;2.70;;
17844;SDS011;9047;53.486;10.218;2023-08-07T03:18:25;4.75;;;2.38;;
17844;SDS011;9047;53.486;10.218;2023-08-07T03:20:54;4.78;;;2.30;;
17844;SDS011;9047;53.486;10.218;2023-08-07T03:23:21;5.30;;;2.30;;
17844;SDS011;9047;53.486;10.218;2023-08-07T03:25:48;4.70;;;2.35;;
17844;SDS011;9047;53.486;10.218;2023-08-07T03:28:15;3.15;;;2.47;;
17844;SDS011;9047;53.486;10.218;2023-08-07T03:30:42;4.65;;;2.33;;
17844;SDS011;9047;53.486;10.218;2023-08-07T03:33:09;5.90;;;2.67;;
17844;SDS011;9047;53.486;10.218;2023-08-07T03:35:38;4.90;;;2.50;;
17844;SDS011;9047;53.486;10.218;2023-08-07T03:38:07;4.75;;;2.63;;
17844;SDS011;9047;53.486;10.218;2023-08-07T03:40:34;6.05;;;2.45;;
17844;SDS011;9047;53.486;10.218;2023-08-07T03:43:01;4.30;;;2.25;;
17844;SDS011;9047;53.486;10.218;2023-08-07T03:45:28;4.43;;;2.53;;
17844;SDS011;9047;53.486;10.218;2023-08-07T03:47:55;10.98;;;2.78;;
17844;SDS011;9047;53.486;10.218;2023-08-07T03:50:22;4.82;;;2.28;;
17844;SDS011;9047;53.486;10.218;2023-08-07T03:52:48;9.55;;;2.47;;
17844;SDS011;9047;53.486;10.218;2023-08-07T03:55:17;5.90;;;2.17;;
17844;SDS011;9047;53.486;10.218;2023-08-07T03:57:44;5.78;;;2.10;;
17844;SDS011;9047;53.486;10.218;2023-08-07T04:00:11;5.93;;;1.92;;
17844;SDS011;9047;53.486;10.218;2023-08-07T04:02:39;5.05;;;2.30;;
17844;SDS011;9047;53.486;10.218;2023-08-07T04:05:06;4.97;;;2.20;;
17844;SDS011;9047;53.486;10.218;2023-08-07T04:07:33;5.05;;;2.08;;
17844;SDS011;9047;53.486;10.218;2023-08-07T04:10:01;5.07;;;1.98;;
17844;SDS011;9047;53.486;10.218;2023-08-07T04:12:30;4.03;;;2.00;;
17844;SDS011;9047;53.486;10.218;2023-08-07T04:14:57;4.13;;;2.25;;
17844;SDS011;9047;53.486;10.218;2023-08-07T04:17:24;4.40;;;2.08;;
17844;SDS011;9047;53.486;10.218;2023-08-07T04:19:51;4.00;;;2.13;;
17844;SDS011;9047;53.486;10.218;2023-08-07T04:22:18;5.15;;;2.05;;
17844;SDS011;9047;53.486;10.218;2023-08-07T04:24:45;6.28;;;2.65;;
17844;SDS011;9047;53.486;10.218;2023-08-07T04:27:12;5.90;;;2.25;;
17844;SDS011;9047;53.486;10.218;2023-08-07T04:29:40;5.75;;;2.55;;
17844;SDS011;9047;53.486;10.218;2023-08-07T04:32:07;5.45;;;2.35;;
17844;SDS011;9047;53.486;10.218;2023-08-07T04:34:34;7.07;;;2.55;;
17844;SDS011;9047;53.486;10.218;2023-08-07T04:37:01;6.55;;;2.45;;
17844;SDS011;9047;53.486;10.218;2023-08-07T04:39:28;7.03;;;2.40;;
17844;SDS011;9047;53.486;10.218;2023-08-07T04:41:56;10.57;;;2.97;;
17844;SDS011;9047;53.486;10.218;2023-08-07T04:44:22;9.13;;;2.60;;
17844;SDS011;9047;53.486;10.218;2023-08-07T04:46:50;7.63;;;2.63;;
17844;SDS011;9047;53.486;10.218;2023-08-07T04:49:18;4.95;;;2.38;;
17844;SDS011;9047;53.486;10.218;2023-08-07T04:51:45;5.10;;;2.50;;
17844;SDS011;9047;53.486;10.218;2023-08-07T04:54:12;8.95;;;3.15;;
17844;SDS011;9047;53.486;10.218;2023-08-07T04:56:39;6.43;;;2.80;;
17844;SDS011;9047;53.486;10.218;2023-08-07T04:59:09;6.70;;;3.17;;
17844;SDS011;9047;53.486;10.218;2023-08-07T05:01:36;6.55;;;2.40;;
17844;SDS011;9047;53.486;10.218;2023-08-07T05:04:04;5.65;;;2.95;;
17844;SDS011;9047;53.486;10.218;2023-08-07T05:06:34;6.38;;;2.40;;
17844;SDS011;9047;53.486;10.218;2023-08-07T05:09:01;4.47;;;2.03;;
17844;SDS011;9047;53.486;10.218;2023-08-07T05:11:28;4.85;;;2.30;;
17844;SDS011;9047;53.486;10.218;2023-08-07T05:13:55;6.05;;;2.70;;
17844;SDS011;9047;53.486;10.218;2023-08-07T05:16:22;4.35;;;2.38;;
17844;SDS011;9047;53.486;10.218;2023-08-07T05:18:49;5.82;;;2.42;;
17844;SDS011;9047;53.486;10.218;2023-08-07T05:21:18;6.38;;;2.35;;
17844;SDS011;9047;53.486;10.218;2023-08-07T05:23:45;6.38;;;2.40;;
17844;SDS011;9047;53.486;10.218;2023-08-07T05:26:12;5.63;;;2.42;;
17844;SDS011;9047;53.486;10.218;2023-08-07T05:28:39;7.13;;;2.50;;
17844;SDS011;9047;53.486;10.218;2023-08-07T05:31:06;8.32;;;2.30;;
17844;SDS011;9047;53.486;10.218;2023-08-07T05:33:33;9.43;;;2.40;;
17844;SDS011;9047;53.486;10.218;2023-08-07T05:35:59;5.88;;;2.28;;
17844;SDS011;9047;53.486;10.218;2023-08-07T05:38:29;6.97;;;2.00;;
17844;SDS011;9047;53.486;10.218;2023-08-07T05:40:55;5.80;;;2.50;;
17844;SDS011;9047;53.486;10.218;2023-08-07T05:43:22;4.80;;;2.17;;
17844;SDS011;9047;53.486;10.218;2023-08-07T05:45:49;8.35;;;2.83;;
17844;SDS011;9047;53.486;10.218;2023-08-07T05:48:16;7.00;;;2.40;;
17844;SDS011;9047;53.486;10.218;2023-08-07T05:50:43;5.80;;;2.53;;
17844;SDS011;9047;53.486;10.218;2023-08-07T05:53:10;7.68;;;2.55;;
17844;SDS011;9047;53.486;10.218;2023-08-07T05:55:41;9.43;;;2.70;;
17844;SDS011;9047;53.486;10.218;2023-08-07T05:58:08;6.72;;;2.50;;
17844;SDS011;9047;53.486;10.218;2023-08-07T06:00:36;10.27;;;2.70;;
17844;SDS011;9047;53.486;10.218;2023-08-07T06:03:03;6.70;;;2.25;;
17844;SDS011;9047;53.486;10.218;2023-08-07T06:05:30;9.07;;;2.60;;
17844;SDS011;9047;53.486;10.218;2023-08-07T06:07:57;7.53;;;2.78;;
17844;SDS011;9047;53.486;10.218;2023-08-07T06:10:24;11.95;;;3.70;;
17844;SDS011;9047;53.486;10.218;2023-08-07T06:12:52;10.75;;;3.88;;
17844;SDS011;9047;53.486;10.218;2023-08-07T06:15:19;11.05;;;4.32;;
17844;SDS011;9047;53.486;10.218;2023-08-07T06:17:46;16.75;;;4.72;;
17844;SDS011;9047;53.486;10.218;2023-08-07T06:20:15;11.73;;;4.32;;
17844;SDS011;9047;53.486;10.218;2023-08-07T06:22:42;15.18;;;4.93;;
17844;SDS011;9047;53.486;10.218;2023-08-07T06:25:09;15.60;;;5.00;;
17844;SDS011;9047;53.486;10.218;2023-08-07T06:27:36;16.08;;;5.00;;
17844;SDS011;9047;53.486;10.218;2023-08-07T06:30:05;11.73;;;4.60;;
17844;SDS011;9047;53.486;10.218;2023-08-07T06:32:33;14.50;;;4.85;;
17844;SDS011;9047;53.486;10.218;2023-08-07T06:34:59;14.85;;;5.60;;
17844;SDS011;9047;53.486;10.218;2023-08-07T06:37:27;17.70;;;5.15;;
17844;SDS011;9047;53.486;10.218;2023-08-07T06:39:54;22.02;;;5.13;;
17844;SDS011;9047;53.486;10.218;2023-08-07T06:42:21;14.27;;;5.00;;
17844;SDS011;9047;53.486;10.218;2023-08-07T06:44:48;19.27;;;4.88;;
17844;SDS011;9047;53.486;10.218;2023-08-07T06:47:16;12.13;;;4.47;;
17844;SDS011;9047;53.486;10.218;2023-08-07T06:49:43;17.67;;;4.63;;
17844;SDS011;9047;53.486;10.218;2023-08-07T06:52:10;17.85;;;4.28;;
17844;SDS011;9047;53.486;10.218;2023-08-07T06:54:37;14.63;;;4.43;;
17844;SDS011;9047;53.486;10.218;2023-08-07T06:57:04;19.08;;;4.80;;
17844;SDS011;9047;53.486;10.218;2023-08-07T06:59:31;18.70;;;4.10;;
17844;SDS011;9047;53.486;10.218;2023-08-07T07:01:59;12.50;;;4.15;;
17844;SDS011;9047;53.486;10.218;2023-08-07T07:04:27;19.95;;;4.50;;
17844;SDS011;9047;53.486;10.218;2023-08-07T07:06:54;19.17;;;4.22;;
17844;SDS011;9047;53.486;10.218;2023-08-07T07:09:21;16.13;;;4.55;;
17844;SDS011;9047;53.486;10.218;2023-08-07T07:11:48;15.48;;;4.32;;
17844;SDS011;9047;53.486;10.218;2023-08-07T07:14:15;15.20;;;3.90;;
17844;SDS011;9047;53.486;10.218;2023-08-07T07:16:42;20.30;;;4.32;;
17844;SDS011;9047;53.486;10.218;2023-08-07T07:19:09;15.57;;;3.78;;
17844;SDS011;9047;53.486;10.218;2023-08-07T07:21:39;17.23;;;3.60;;
17844;SDS011;9047;53.486;10.218;2023-08-07T07:24:06;13.55;;;3.70;;
17844;SDS011;9047;53.486;10.218;2023-08-07T07:26:33;14.27;;;3.92;;
17844;SDS011;9047;53.486;10.218;2023-08-07T07:29:00;13.88;;;3.63;;
17844;SDS011;9047;53.486;10.218;2023-08-07T07:31:27;14.75;;;3.50;;
17844;SDS011;9047;53.486;10.218;2023-08-07T07:33:54;12.90;;;3.63;;
17844;SDS011;9047;53.486;10.218;2023-08-07T07:36:21;17.42;;;3.40;;
17844;SDS011;9047;53.486;10.218;2023-08-07T07:38:49;16.17;;;3.53;;
17844;SDS011;9047;53.486;10.218;2023-08-07T07:41:16;12.80;;;3.45;;
17844;SDS011;9047;53.486;10.218;2023-08-07T07:43:43;14.40;;;3.30;;
17844;SDS011;9047;53.486;10.218;2023-08-07T07:46:10;12.23;;;3.45;;
17844;SDS011;9047;53.486;10.218;2023-08-07T07:48:37;13.75;;;3.35;;
17844;SDS011;9047;53.486;10.218;2023-08-07T07:51:04;12.75;;;3.15;;
17844;SDS011;9047;53.486;10.218;2023-08-07T07:53:31;14.60;;;3.30;;
17844;SDS011;9047;53.486;10.218;2023-08-07T07:55:58;12.88;;;2.95;;
17844;SDS011;9047;53.486;10.218;2023-08-07T07:58:25;8.82;;;2.65;;
17844;SDS011;9047;53.486;10.218;2023-08-07T08:00:52;10.93;;;3.53;;
17844;SDS011;9047;53.486;10.218;2023-08-07T08:03:19;11.73;;;3.13;;
17844;SDS011;9047;53.486;10.218;2023-08-07T08:05:49;12.45;;;3.22;;
17844;SDS011;9047;53.486;10.218;2023-08-07T08:08:16;13.18;;;3.33;;
17844;SDS011;9047;53.486;10.218;2023-08-07T08:10:43;10.07;;;3.13;;
17844;SDS011;9047;53.486;10.218;2023-08-07T08:13:13;10.32;;;2.78;;
17844;SDS011;9047;53.486;10.218;2023-08-07T08:15:42;10.93;;;3.30;;
17844;SDS011;9047;53.486;10.218;2023-08-07T08:18:09;10.32;;;2.72;;
17844;SDS011;9047;53.486;10.218;2023-08-07T08:20:36;11.90;;;2.92;;
17844;SDS011;9047;53.486;10.218;2023-08-07T08:23:03;9.20;;;2.67;;
17844;SDS011;9047;53.486;10.218;2023-08-07T08:25:31;9.00;;;2.55;;
17844;SDS011;9047;53.486;10.218;2023-08-07T08:27:58;9.38;;;2.97;;
17844;SDS011;9047;53.486;10.218;2023-08-07T08:30:29;13.23;;;3.53;;
17844;SDS011;9047;53.486;10.218;2023-08-07T08:32:56;10.90;;;2.97;;
17844;SDS011;9047;53.486;10.218;2023-08-07T08:35:24;14.43;;;3.10;;
17844;SDS011;9047;53.486;10.218;2023-08-07T08:37:51;13.07;;;3.13;;
17844;SDS011;9047;53.486;10.218;2023-08-07T08:40:18;14.13;;;3.30;;
17844;SDS011;9047;53.486;10.218;2023-08-07T08:42:45;10.82;;;3.10;;
17844;SDS011;9047;53.486;10.218;2023-08-07T08:45:13;15.45;;;3.45;;
17844;SDS011;9047;53.486;10.218;2023-08-07T08:47:42;15.60;;;3.30;;
17844;SDS011;9047;53.486;10.218;2023-08-07T08:50:12;13.15;;;3.40;;
17844;SDS011;9047;53.486;10.218;2023-08-07T08:52:41;15.00;;;3.42;;
17844;SDS011;9047;53.486;10.218;2023-08-07T08:55:09;14.95;;;3.30;;
17844;SDS011;9047;53.486;10.218;2023-08-07T08:57:39;10.80;;;3.03;;
17844;SDS011;9047;53.486;10.218;2023-08-07T09:00:07;14.27;;;3.58;;
17844;SDS011;9047;53.486;10.218;2023-08-07T09:02:45;14.15;;;3.20;;
17844;SDS011;9047;53.486;10.218;2023-08-07T09:05:14;14.02;;;3.78;;
17844;SDS011;9047;53.486;10.218;2023-08-07T09:07:41;15.98;;;3.45;;
17844;SDS011;9047;53.486;10.218;2023-08-07T09:10:09;13.70;;;3.20;;
17844;SDS011;9047;53.486;10.218;2023-08-07T09:12:38;18.13;;;3.83;;
17844;SDS011;9047;53.486;10.218;2023-08-07T09:15:10;17.52;;;4.10;;
17844;SDS011;9047;53.486;10.218;2023-08-07T09:17:40;14.73;;;3.90;;
17844;SDS011;9047;53.486;10.218;2023-08-07T09:20:11;15.75;;;3.63;;
17844;SDS011;9047;53.486;10.218;2023-08-07T09:22:40;12.15;;;3.70;;
17844;SDS011;9047;53.486;10.218;2023-08-07T09:25:07;18.08;;;3.85;;
17844;SDS011;9047;53.486;10.218;2023-08-07T09:27:36;10.57;;;3.53;;
17844;SDS011;9047;53.486;10.218;2023-08-07T09:30:04;12.02;;;3.22;;
17844;SDS011;9047;53.486;10.218;2023-08-07T09:32:35;10.27;;;2.90;;
17844;SDS011;9047;53.486;10.218;2023-08-07T09:35:04;12.02;;;3.05;;
17844;SDS011;9047;53.486;10.218;2023-08-07T09:37:35;12.02;;;3.10;;
17844;SDS011;9047;53.486;10.218;2023-08-07T09:40:03;13.30;;;3.30;;
17844;SDS011;9047;53.486;10.218;2023-08-07T09:42:35;12.40;;;2.60;;
17844;SDS011;9047;53.486;10.218;2023-08-07T09:45:03;11.32;;;2.65;;
17844;SDS011;9047;53.486;10.218;2023-08-07T09:47:45;11.38;;;2.90;;
17844;SDS011;9047;53.486;10.218;2023-08-07T09:50:15;15.35;;;2.53;;
17844;SDS011;9047;53.486;10.218;2023-08-07T09:52:47;11.38;;;2.90;;
17844;SDS011;9047;53.486;10.218;2023-08-07T09:55:15;14.85;;;2.97;;
17844;SDS011;9047;53.486;10.218;2023-08-07T09:57:42;9.18;;;2.67;;
17844;SDS011;9047;53.486;10.218;2023-08-07T10:00:10;15.65;;;3.28;;
17844;SDS011;9047;53.486;10.218;2023-08-07T10:02:40;9.57;;;2.92;;
17844;SDS011;9047;53.486;10.218;2023-08-07T10:05:07;14.63;;;2.67;;
17844;SDS011;9047;53.486;10.218;2023-08-07T10:07:36;11.40;;;2.53;;
17844;SDS011;9047;53.486;10.218;2023-08-07T10:10:06;7.68;;;2.70;;
17844;SDS011;9047;53.486;10.218;2023-08-07T10:12:34;9.07;;;2.75;;
17844;SDS011;9047;53.486;10.218;2023-08-07T10:15:03;8.02;;;2.75;;
17844;SDS011;9047;53.486;10.218;2023-08-07T10:17:32;12.15;;;2.80;;
17844;SDS011;9047;53.486;10.218;2023-08-07T10:20:01;12.23;;;3.10;;
17844;SDS011;9047;53.486;10.218;2023-08-07T10:22:30;10.55;;;2.70;;
17844;SDS011;9047;53.486;10.218;2023-08-07T10:24:59;10.65;;;2.55;;
17844;SDS011;9047;53.486;10.218;2023-08-07T10:27:32;17.15;;;2.75;;
17844;SDS011;9047;53.486;10.218;2023-08-07T10:30:02;11.45;;;2.92;;
17844;SDS011;9047;53.486;10.218;2023-08-07T10:32:35;13.60;;;3.00;;
17844;SDS011;9047;53.486;10.218;2023-08-07T10:35:02;9.90;;;2.70;;
17844;SDS011;9047;53.486;10.218;2023-08-07T10:37:40;10.52;;;2.80;;
17844;SDS011;9047;53.486;10.218;2023-08-07T10:40:08;11.65;;;2.80;;
17844;SDS011;9047;53.486;10.218;2023-08-07T10:42:53;11.40;;;2.88;;
17844;SDS011;9047;53.486;10.218;2023-08-07T10:45:23;10.40;;;2.80;;
17844;SDS011;9047;53.486;10.218;2023-08-07T10:47:56;12.98;;;3.10;;
17844;SDS011;9047;53.486;10.218;2023-08-07T10:50:28;9.10;;;2.63;;
17844;SDS011;9047;53.486;10.218;2023-08-07T10:52:56;9.48;;;2.33;;
17844;SDS011;9047;53.486;10.218;2023-08-07T10:55:31;14.75;;;2.65;;
17844;SDS011;9047;53.486;10.218;2023-08-07T10:58:14;11.18;;;2.55;;
17844;SDS011;9047;53.486;10.218;2023-08-07T11:00:48;10.38;;;2.90;;
17844;SDS011;9047;53.486;10.218;2023-08-07T11:03:19;11.40;;;2.35;;
17844;SDS011;9047;53.486;10.218;2023-08-07T11:05:52;14.77;;;2.78;;
17844;SDS011;9047;53.486;10.218;2023-08-07T11:08:21;11.57;;;2.60;;
17844;SDS011;9047;53.486;10.218;2023-08-07T11:10:48;10.73;;;2.70;;
17844;SDS011;9047;53.486;10.218;2023-08-07T11:13:19;10.48;;;2.53;;
17844;SDS011;9047;53.486;10.218;2023-08-07T11:15:46;13.45;;;2.63;;
17844;SDS011;9047;53.486;10.218;2023-08-07T11:18:13;9.30;;;3.00;;
17844;SDS011;9047;53.486;10.218;2023-08-07T11:20:41;11.15;;;2.78;;
17844;SDS011;9047;53.486;10.218;2023-08-07T11:23:08;7.82;;;2.50;;
17844;SDS011;9047;53.486;10.218;2023-08-07T11:25:36;11.48;;;2.78;;
17844;SDS011;9047;53.486;10.218;2023-08-07T11:28:03;8.13;;;2.67;;
17844;SDS011;9047;53.486;10.218;2023-08-07T11:30:32;10.32;;;2.58;;
17844;SDS011;9047;53.486;10.218;2023-08-07T11:33:00;15.57;;;3.00;;
17844;SDS011;9047;53.486;10.218;2023-08-07T11:35:28;8.02;;;2.50;;
17844;SDS011;9047;53.486;10.218;2023-08-07T11:37:55;10.57;;;2.40;;
17844;SDS011;9047;53.486;10.218;2023-08-07T11:40:23;6.50;;;2.00;;
17844;SDS011;9047;53.486;10.218;2023-08-07T11:42:50;6.20;;;1.80;;
17844;SDS011;9047;53.486;10.218;2023-08-07T11:45:17;10.00;;;2.13;;
17844;SDS011;9047;53.486;10.218;2023-08-07T11:47:45;7.97;;;2.20;;
17844;SDS011;9047;53.486;10.218;2023-08-07T11:50:13;9.30;;;1.90;;
17844;SDS011;9047;53.486;10.218;2023-08-07T11:52:40;8.50;;;2.47;;
17844;SDS011;9047;53.486;10.218;2023-08-07T11:55:08;8.13;;;2.00;;
17844;SDS011;9047;53.486;10.218;2023-08-07T11:57:37;8.90;;;2.17;;
17844;SDS011;9047;53.486;10.218;2023-08-07T12:00:08;10.00;;;2.47;;
17844;SDS011;9047;53.486;10.218;2023-08-07T12:02:41;8.77;;;2.40;;
17844;SDS011;9047;53.486;10.218;2023-08-07T12:05:10;9.05;;;2.30;;
17844;SDS011;9047;53.486;10.218;2023-08-07T12:07:38;10.57;;;2.72;;
17844;SDS011;9047;53.486;10.218;2023-08-07T12:10:06;7.10;;;2.70;;
17844;SDS011;9047;53.486;10.218;2023-08-07T12:12:36;8.65;;;2.55;;
17844;SDS011;9047;53.486;10.218;2023-08-07T12:15:10;11.38;;;2.60;;
17844;SDS011;9047;53.486;10.218;2023-08-07T12:17:37;10.55;;;2.83;;
17844;SDS011;9047;53.486;10.218;2023-08-07T12:20:07;7.82;;;2.30;;
17844;SDS011;9047;53.486;10.218;2023-08-07T12:22:38;10.75;;;2.50;;
17844;SDS011;9047;53.486;10.218;2023-08-07T12:25:05;12.18;;;2.65;;
17844;SDS011;9047;53.486;10.218;2023-08-07T12:27:33;11.57;;;2.63;;
17844;SDS011;9047;53.486;10.218;2023-08-07T12:30:00;9.68;;;2.10;;
17844;SDS011;9047;53.486;10.218;2023-08-07T12:32:27;7.85;;;2.40;;
17844;SDS011;9047;53.486;10.218;2023-08-07T12:35:01;11.48;;;2.92;;
17844;SDS011;9047;53.486;10.218;2023-08-07T12:37:33;7.30;;;2.10;;
17844;SDS011;9047;53.486;10.218;2023-08-07T12:40:01;8.20;;;2.13;;
17844;SDS011;9047;53.486;10.218;2023-08-07T12:42:31;9.43;;;2.60;;
17844;SDS011;9047;53.486;10.218;2023-08-07T12:44:57;11.20;;;2.63;;
17844;SDS011;9047;53.486;10.218;2023-08-07T12:47:24;9.45;;;2.60;;
17844;SDS011;9047;53.486;10.218;2023-08-07T12:49:51;8.68;;;2.63;;
17844;SDS011;9047;53.486;10.218;2023-08-07T12:52:18;9.93;;;2.60;;
17844;SDS011;9047;53.486;10.218;2023-08-07T12:54:45;10.85;;;2.80;;
17844;SDS011;9047;53.486;10.218;2023-08-07T12:57:14;8.07;;;2.60;;
17844;SDS011;9047;53.486;10.218;2023-08-07T12:59:46;8.57;;;2.47;;
17844;SDS011;9047;53.486;10.218;2023-08-07T13:07:38;9.30;;;2.65;;
17844;SDS011;9047;53.486;10.218;2023-08-07T13:10:23;11.80;;;3.00;;
17844;SDS011;9047;53.486;10.218;2023-08-07T13:12:55;11.25;;;2.78;;
17844;SDS011;9047;53.486;10.218;2023-08-07T13:15:22;11.00;;;2.90;;
17844;SDS011;9047;53.486;10.218;2023-08-07T13:17:51;13.80;;;3.25;;
17844;SDS011;9047;53.486;10.218;2023-08-07T13:20:18;10.45;;;2.92;;
17844;SDS011;9047;53.486;10.218;2023-08-07T13:22:45;13.82;;;3.35;;
17844;SDS011;9047;53.486;10.218;2023-08-07T13:25:13;11.15;;;3.28;;
17844;SDS011;9047;53.486;10.218;2023-08-07T13:27:41;10.40;;;2.40;;
17844;SDS011;9047;53.486;10.218;2023-08-07T13:30:10;11.93;;;2.85;;
17844;SDS011;9047;53.486;10.218;2023-08-07T13:32:39;13.05;;;2.80;;
17844;SDS011;9047;53.486;10.218;2023-08-07T13:35:07;11.60;;;2.85;;
17844;SDS011;9047;53.486;10.218;2023-08-07T13:37:37;12.00;;;3.03;;
17844;SDS011;9047;53.486;10.218;2023-08-07T13:40:05;7.88;;;2.50;;
17844;SDS011;9047;53.486;10.218;2023-08-07T13:42:32;7.03;;;2.55;;
17844;SDS011;9047;53.486;10.218;2023-08-07T13:45:00;10.05;;;2.80;;
17844;SDS011;9047;53.486;10.218;2023-08-07T13:48:07;8.98;;;2.70;;
17844;SDS011;9047;53.486;10.218;2023-08-07T13:50:35;10.63;;;2.88;;
17844;SDS011;9047;53.486;10.218;2023-08-07T13:53:04;11.25;;;2.67;;
17844;SDS011;9047;53.486;10.218;2023-08-07T13:55:30;10.02;;;2.40;;
17844;SDS011;9047;53.486;10.218;2023-08-07T13:57:58;11.98;;;2.35;;
17844;SDS011;9047;53.486;10.218;2023-08-07T14:00:24;10.05;;;2.83;;
17844;SDS011;9047;53.486;10.218;2023-08-07T14:02:54;13.68;;;2.83;;
17844;SDS011;9047;53.486;10.218;2023-08-07T14:05:22;8.85;;;2.55;;
17844;SDS011;9047;53.486;10.218;2023-08-07T14:07:49;7.63;;;2.60;;
17844;SDS011;9047;53.486;10.218;2023-08-07T14:10:18;11.45;;;2.70;;
17844;SDS011;9047;53.486;10.218;2023-08-07T14:12:45;11.98;;;2.80;;
17844;SDS011;9047;53.486;10.218;2023-08-07T14:15:11;8.98;;;2.70;;
17844;SDS011;9047;53.486;10.218;2023-08-07T14:17:39;10.85;;;2.53;;
17844;SDS011;9047;53.486;10.218;2023-08-07T14:20:06;10.25;;;2.75;;
17844;SDS011;9047;53.486;10.218;2023-08-07T14:22:39;10.15;;;2.45;;
17844;SDS011;9047;53.486;10.218;2023-08-07T14:25:07;7.25;;;2.20;;
17844;SDS011;9047;53.486;10.218;2023-08-07T14:27:34;7.70;;;2.20;;
17844;SDS011;9047;53.486;10.218;2023-08-07T14:30:02;10.82;;;2.60;;
17844;SDS011;9047;53.486;10.218;2023-08-07T14:32:29;10.65;;;2.30;;
17844;SDS011;9047;53.486;10.218;2023-08-07T14:34:55;13.57;;;2.67;;
17844;SDS011;9047;53.486;10.218;2023-08-07T14:37:22;9.90;;;2.50;;
17844;SDS011;9047;53.486;10.218;2023-08-07T14:39:51;11.95;;;2.63;;
17844;SDS011;9047;53.486;10.218;2023-08-07T14:42:18;12.23;;;3.10;;
17844;SDS011;9047;53.486;10.218;2023-08-07T14:44:45;9.90;;;3.15;;
17844;SDS011;9047;53.486;10.218;2023-08-07T14:47:11;12.07;;;2.90;;
17844;SDS011;9047;53.486;10.218;2023-08-07T14:49:38;12.13;;;3.30;;
17844;SDS011;9047;53.486;10.218;2023-08-07T14:52:05;12.45;;;3.17;;